Time;durP1;ratioP1;P1;durP2;ratioP2;P2;SDS_P1;SDS_P2;PMS_P1;PMS_P2;Temp;Humidity;BMP_temperature;BMP_pressure;BME280_temperature;BME280_humidity;BME280_pressure;Samples;Min_cycle;Max_cycle;Signal;HPM_P1;HPM_P2
2021/04/16 00:01:17;;;;;;;5.20;4.70;;;;;;;5.79;100.00;97418.50;5075697;28;20280;-91
2021/04/16 00:03:44;;;;;;;4.23;3.80;;;;;;;5.68;100.00;97426.19;5075244;28;20224;-90
2021/04/16 00:06:11;;;;;;;4.77;4.37;;;;;;;5.65;100.00;97434.22;5075320;28;20192;-91
2021/04/16 00:08:38;;;;;;;4.90;4.43;;;;;;;5.55;100.00;97440.97;5075539;28;20637;-91
2021/04/16 00:11:10;;;;;;;12.50;4.00;;;;;;;5.56;100.00;97435.66;5074930;28;20224;-91
2021/04/16 00:13:37;;;;;;;4.47;4.17;;;;;;;5.36;100.00;97436.91;5075421;28;20535;-91
2021/04/16 00:16:05;;;;;;;4.30;4.00;;;;;;;5.11;100.00;97445.44;5075074;28;20211;-91
2021/04/16 00:18:33;;;;;;;5.00;3.80;;;;;;;5.14;100.00;97447.88;5075311;28;20717;-91
2021/04/16 00:21:00;;;;;;;5.13;4.73;;;;;;;5.34;100.00;97457.06;5075008;28;20618;-91
2021/04/16 00:23:28;;;;;;;6.90;5.80;;;;;;;5.17;100.00;97447.69;5074874;28;20204;-92
2021/04/16 00:25:55;;;;;;;11.27;9.60;;;;;;;5.11;100.00;97455.88;5075011;28;20283;-90
2021/04/16 00:28:22;;;;;;;10.20;6.80;;;;;;;5.31;100.00;97467.66;5074890;28;20246;-90
2021/04/16 00:30:52;;;;;;;8.63;6.67;;;;;;;5.37;100.00;97477.72;5075026;28;20225;-91
2021/04/16 00:33:19;;;;;;;10.93;7.63;;;;;;;5.15;100.00;97469.56;5074592;28;20284;-91
2021/04/16 00:35:47;;;;;;;7.87;5.90;;;;;;;5.06;100.00;97483.13;5075094;28;20204;-90
2021/04/16 00:38:16;;;;;;;6.33;5.53;;;;;;;5.15;100.00;97493.00;5074986;28;20207;-90
2021/04/16 00:40:46;;;;;;;5.17;4.67;;;;;;;5.06;100.00;97481.41;5074843;28;20193;-90
2021/04/16 00:43:16;;;;;;;6.37;4.60;;;;;;;4.84;100.00;97492.28;5075054;28;20242;-90
2021/04/16 00:45:44;;;;;;;5.43;4.93;;;;;;;4.83;100.00;97490.59;5074691;28;20201;-91
2021/04/16 00:48:21;;;;;;;4.23;3.67;;;;;;;4.77;100.00;97465.75;5074437;28;20197;-91
2021/04/16 00:50:53;;;;;;;4.87;4.13;;;;;;;4.55;100.00;97443.75;5074270;28;20296;-91
2021/04/16 00:53:22;;;;;;;6.10;4.87;;;;;;;4.33;100.00;97472.78;5074500;28;20216;-91
2021/04/16 00:55:50;;;;;;;5.43;4.93;;;;;;;4.49;100.00;97492.63;5074567;28;20193;-91
2021/04/16 00:58:19;;;;;;;4.57;4.13;;;;;;;4.53;100.00;97488.91;5074621;28;20225;-90
2021/04/16 01:00:49;;;;;;;4.33;3.93;;;;;;;4.70;100.00;97453.22;5074056;28;20233;-91
2021/04/16 01:03:16;;;;;;;4.10;3.80;;;;;;;4.92;100.00;97439.72;5074374;28;20181;-91
2021/04/16 01:05:43;;;;;;;4.73;4.27;;;;;;;5.04;100.00;97427.69;5073993;28;20289;-90
2021/04/16 01:08:12;;;;;;;4.43;4.13;;;;;;;5.01;100.00;97413.91;5074035;28;20309;-91
2021/04/16 01:10:39;;;;;;;5.57;4.57;;;;;;;4.79;100.00;97431.00;5073976;28;20213;-91
2021/04/16 01:13:07;;;;;;;6.27;5.33;;;;;;;4.60;100.00;97452.94;5074225;28;20246;-90
2021/04/16 01:15:38;;;;;;;6.77;6.10;;;;;;;4.64;100.00;97474.41;5074118;28;20205;-90
2021/04/16 01:18:09;;;;;;;4.57;4.17;;;;;;;4.58;100.00;97491.25;5074144;28;20274;-92
2021/04/16 01:20:39;;;;;;;5.67;3.87;;;;;;;4.49;100.00;97505.66;5073697;28;20272;-92
2021/04/16 01:23:14;;;;;;;8.20;4.40;;;;;;;4.15;100.00;97508.53;5073750;28;20220;-92
2021/04/16 01:25:43;;;;;;;6.67;3.87;;;;;;;4.35;100.00;97515.19;5074187;28;20188;-91
2021/04/16 01:28:10;;;;;;;3.93;3.57;;;;;;;4.44;100.00;97519.88;5073830;28;20762;-91
2021/04/16 01:30:53;;;;;;;3.63;3.33;;;;;;;4.29;100.00;97504.22;5073587;28;20259;-90
2021/04/16 01:33:20;;;;;;;4.10;3.70;;;;;;;4.41;100.00;97497.47;5073993;28;20605;-90
2021/04/16 01:35:47;;;;;;;3.90;3.57;;;;;;;4.20;100.00;97480.50;5073483;28;20287;-90
2021/04/16 01:38:14;;;;;;;4.33;3.93;;;;;;;4.23;100.00;97481.16;5073423;28;20296;-90
2021/04/16 01:40:42;;;;;;;3.50;3.20;;;;;;;4.30;100.00;97476.44;5073454;28;20228;-91
2021/04/16 01:43:18;;;;;;;6.80;4.00;;;;;;;3.96;100.00;97475.78;5073331;28;20229;-91
2021/04/16 01:45:45;;;;;;;4.53;3.97;;;;;;;4.07;100.00;97479.53;5073318;28;20259;-91
2021/04/16 01:48:11;;;;;;;4.10;3.70;;;;;;;4.17;100.00;97480.69;5073475;28;20276;-91
2021/04/16 01:50:38;;;;;;;4.57;4.20;;;;;;;3.99;100.00;97478.22;5073131;28;20229;-92
2021/04/16 01:53:07;;;;;;;4.30;3.87;;;;;;;3.78;100.00;97482.88;5073139;28;20204;-90
2021/04/16 01:55:35;;;;;;;4.87;4.47;;;;;;;3.93;100.00;97488.97;5073472;28;20217;-90
2021/04/16 01:58:03;;;;;;;4.80;4.10;;;;;;;4.05;100.00;97488.28;5073346;28;20205;-91
2021/04/16 02:00:32;;;;;;;4.70;4.30;;;;;;;3.73;100.00;97491.84;5073052;28;20195;-91
2021/04/16 02:03:00;;;;;;;6.87;4.80;;;;;;;3.83;100.00;97503.41;5073259;28;20552;-91
2021/04/16 02:05:27;;;;;;;5.53;5.03;;;;;;;3.81;100.00;97497.47;5073071;28;20197;-91
2021/04/16 02:07:54;;;;;;;4.70;4.27;;;;;;;3.92;100.00;97502.91;5072979;28;20240;-91
2021/04/16 02:10:22;;;;;;;4.63;4.17;;;;;;;3.97;100.00;97494.81;5072684;28;20746;-91
2021/04/16 02:12:50;;;;;;;4.77;4.33;;;;;;;3.78;100.00;97508.88;5072803;28;20197;-92
2021/04/16 02:15:18;;;;;;;4.07;3.77;;;;;;;3.67;100.00;97505.19;5073430;28;20219;-91
2021/04/16 02:17:45;;;;;;;5.40;4.67;;;;;;;3.67;100.00;97507.78;5072756;28;20197;-91
2021/04/16 02:20:15;;;;;;;4.37;3.87;;;;;;;3.73;100.00;97518.69;5072880;28;20237;-91
2021/04/16 02:22:42;;;;;;;5.20;4.00;;;;;;;3.75;100.00;97529.03;5072847;28;20232;-92
2021/04/16 02:25:09;;;;;;;4.87;4.30;;;;;;;3.68;100.00;97540.69;5072801;28;20228;-91
2021/04/16 02:27:36;;;;;;;6.37;4.90;;;;;;;3.49;100.00;97546.03;5072921;28;20239;-91
2021/04/16 02:30:06;;;;;;;4.80;4.40;;;;;;;3.49;100.00;97552.06;5072910;28;20288;-91
2021/04/16 02:32:34;;;;;;;4.57;4.10;;;;;;;3.20;100.00;97558.84;5072231;28;20221;-92
2021/04/16 02:35:01;;;;;;;13.80;10.47;;;;;;;3.20;100.00;97574.44;5072413;28;20683;-91
2021/04/16 02:37:27;;;;;;;16.70;12.87;;;;;;;3.26;100.00;97584.50;5072933;28;20657;-90
2021/04/16 02:39:54;;;;;;;14.23;11.20;;;;;;;3.25;100.00;97613.16;5070802;28;20283;-92
2021/04/16 02:42:21;;;;;;;12.47;8.83;;;;;;;3.33;100.00;97618.81;5052356;28;20285;-91
2021/04/16 02:44:48;;;;;;;9.37;7.10;;;;;;;3.37;100.00;97617.72;5052452;28;20254;-91
2021/04/16 02:47:14;;;;;;;5.23;4.83;;;;;;;3.36;100.00;97605.66;5052576;28;20201;-91
2021/04/16 02:49:42;;;;;;;7.70;6.20;;;;;;;3.30;100.00;97595.59;5052473;28;20237;-91
2021/04/16 02:52:09;;;;;;;8.47;6.67;;;;;;;3.28;100.00;97589.63;5052366;28;20313;-91
2021/04/16 02:54:36;;;;;;;24.53;16.27;;;;;;;3.38;100.00;97589.97;5052440;28;20198;-91
2021/04/16 02:57:04;;;;;;;9.30;7.13;;;;;;;3.44;100.00;97598.28;5052795;28;20674;-91
2021/04/16 02:59:31;;;;;;;5.63;4.40;;;;;;;3.44;100.00;97587.06;5052605;28;20229;-91
2021/04/16 03:01:58;;;;;;;7.57;3.90;;;;;;;3.31;100.00;97563.47;5052772;28;20205;-91
2021/04/16 03:04:25;;;;;;;8.80;7.40;;;;;;;2.96;100.00;97579.16;5052840;28;20277;-91
2021/04/16 03:06:53;;;;;;;9.07;7.33;;;;;;;2.85;100.00;97591.88;5052363;28;20190;-91
2021/04/16 03:09:20;;;;;;;9.40;8.50;;;;;;;2.96;100.00;97620.72;5052603;28;20276;-92
2021/04/16 03:11:47;;;;;;;7.27;6.53;;;;;;;3.06;100.00;97652.25;5052251;28;20228;-91
2021/04/16 03:14:14;;;;;;;6.60;5.43;;;;;;;3.03;100.00;97616.03;5052481;28;20656;-92
2021/04/16 03:16:41;;;;;;;5.17;4.73;;;;;;;3.30;100.00;97522.81;5052122;28;20261;-89
2021/04/16 03:19:10;;;;;;;4.20;3.80;;;;;;;3.39;100.00;97500.69;5051979;28;20322;-89
2021/04/16 03:21:36;;;;;;;4.70;4.00;;;;;;;3.36;100.00;97480.06;5051273;28;20193;-89
2021/04/16 03:24:06;;;;;;;3.80;3.50;;;;;;;3.43;100.00;97473.59;5052246;28;20285;-88
2021/04/16 03:29:19;;;;;;;4.47;4.10;;;;;;;3.61;100.00;97453.56;5011051;28;20327;-89
2021/04/16 03:31:46;;;;;;;4.40;4.00;;;;;;;3.75;100.00;97443.22;5010179;28;20258;-88
2021/04/16 03:34:13;;;;;;;6.07;4.97;;;;;;;3.48;100.00;97441.25;5010351;28;20207;-89
2021/04/16 03:36:40;;;;;;;7.07;6.23;;;;;;;2.78;100.00;97456.31;5010227;28;20282;-88
2021/04/16 03:39:08;;;;;;;6.03;5.53;;;;;;;2.60;100.00;97458.13;5009875;28;20195;-88
2021/04/16 03:41:34;;;;;;;30.93;23.33;;;;;;;2.68;100.00;97490.63;5009914;28;20638;-88
2021/04/16 03:44:01;;;;;;;9.17;8.27;;;;;;;2.13;100.00;97515.03;5010184;28;20200;-90
2021/04/16 03:46:28;;;;;;;6.43;5.83;;;;;;;2.22;100.00;97547.44;5008417;28;20199;-84
2021/04/16 03:48:55;;;;;;;6.33;5.80;;;;;;;2.54;100.00;97575.25;5007786;28;20593;-82
2021/04/16 03:51:22;;;;;;;5.10;4.70;;;;;;;2.56;100.00;97576.00;5003414;28;20224;-83
2021/04/16 03:53:48;;;;;;;5.40;4.90;;;;;;;2.76;100.00;97582.75;4991621;28;20204;-86
2021/04/16 03:56:17;;;;;;;4.60;4.23;;;;;;;2.71;100.00;97578.75;4992038;28;20291;-85
2021/04/16 03:58:45;;;;;;;5.40;4.90;;;;;;;2.76;100.00;97574.97;4992058;28;20279;-84
2021/04/16 04:01:13;;;;;;;4.97;4.57;;;;;;;2.76;100.00;97567.19;5052741;28;20194;-86
2021/04/16 04:03:40;;;;;;;6.47;5.87;;;;;;;2.79;100.00;97550.63;5053369;28;20581;-84
2021/04/16 04:06:07;;;;;;;7.93;7.13;;;;;;;2.67;100.00;97557.28;5053094;28;20293;-83
2021/04/16 04:08:34;;;;;;;10.23;9.00;;;;;;;2.66;100.00;97575.53;5054672;28;20286;-84
2021/04/16 04:11:01;;;;;;;11.40;9.40;;;;;;;2.54;100.00;97588.22;5072449;28;20233;-83
2021/04/16 04:13:29;;;;;;;8.47;7.77;;;;;;;2.47;100.00;97602.41;5072512;28;20201;-84
2021/04/16 04:15:55;;;;;;;13.13;9.73;;;;;;;2.45;100.00;97609.41;5073593;28;20307;-87
2021/04/16 04:18:22;;;;;;;12.90;9.13;;;;;;;2.56;100.00;97603.69;5074043;28;20285;-88
2021/04/16 04:20:49;;;;;;;10.60;8.70;;;;;;;2.64;100.00;97619.75;5073768;28;20844;-88
2021/04/16 04:23:16;;;;;;;12.23;9.67;;;;;;;2.60;100.00;97613.88;5074130;28;20666;-88
2021/04/16 04:25:42;;;;;;;11.87;9.40;;;;;;;2.73;100.00;97613.25;5074261;28;20284;-88
2021/04/16 04:28:09;;;;;;;8.33;7.27;;;;;;;2.84;100.00;97621.31;5074373;28;20204;-88
2021/04/16 04:30:38;;;;;;;11.23;9.37;;;;;;;2.71;100.00;97617.69;5074023;28;20208;-88
2021/04/16 04:33:05;;;;;;;9.67;8.53;;;;;;;2.91;100.00;97612.31;5074592;28;20212;-88
2021/04/16 04:35:32;;;;;;;10.47;7.80;;;;;;;3.04;100.00;97618.53;5074154;28;20670;-88
2021/04/16 04:37:59;;;;;;;10.53;7.90;;;;;;;2.90;100.00;97623.59;5074056;28;20695;-88
2021/04/16 04:40:27;;;;;;;12.33;9.63;;;;;;;2.93;100.00;97620.84;5073880;28;20223;-87
2021/04/16 04:42:54;;;;;;;16.57;12.33;;;;;;;2.91;100.00;97625.31;5073961;28;20231;-88
2021/04/16 04:45:21;;;;;;;12.93;10.57;;;;;;;3.12;100.00;97651.94;5074532;28;20193;-88
2021/04/16 04:47:49;;;;;;;25.47;13.37;;;;;;;3.22;100.00;97636.69;5073985;28;20284;-88
2021/04/16 04:50:17;;;;;;;16.20;13.27;;;;;;;3.29;100.00;97628.53;5074326;28;20208;-88
2021/04/16 04:52:44;;;;;;;12.30;9.70;;;;;;;3.36;100.00;97620.38;5073973;28;20260;-88
2021/04/16 04:55:14;;;;;;;12.20;9.60;;;;;;;3.46;100.00;97611.19;5074097;28;20285;-88
2021/04/16 04:57:41;;;;;;;12.43;10.43;;;;;;;3.53;100.00;97594.34;5072931;28;20285;-87
2021/04/16 05:00:11;;;;;;;8.17;7.33;;;;;;;3.63;100.00;97595.53;5073784;28;20273;-88
2021/04/16 05:02:38;;;;;;;7.60;6.17;;;;;;;3.69;100.00;97581.34;5073740;28;20657;-88
2021/04/16 05:05:08;;;;;;;14.33;9.90;;;;;;;3.73;100.00;97573.28;5073783;28;20611;-87
2021/04/16 05:07:35;;;;;;;49.80;27.23;;;;;;;3.86;100.00;97550.06;5073201;28;20291;-87
2021/04/16 05:10:02;;;;;;;46.93;24.57;;;;;;;3.84;100.00;97540.66;5073822;28;20197;-88
2021/04/16 05:12:29;;;;;;;27.50;14.63;;;;;;;4.01;100.00;97533.56;5073028;28;20720;-87
2021/04/16 05:14:56;;;;;;;39.03;19.87;;;;;;;4.10;100.00;97515.78;5073633;28;20224;-88
2021/04/16 05:17:22;;;;;;;83.10;30.47;;;;;;;4.19;100.00;97510.03;5073060;28;20288;-87
2021/04/16 05:19:49;;;;;;;156.87;53.03;;;;;;;4.29;100.00;97490.34;5073019;28;20239;-87
2021/04/16 05:22:17;;;;;;;145.77;56.60;;;;;;;4.49;100.00;97481.38;5073091;28;20243;-88
2021/04/16 05:24:44;;;;;;;75.93;33.83;;;;;;;4.52;100.00;97465.56;5073096;28;20197;-88
2021/04/16 05:27:14;;;;;;;197.73;96.00;;;;;;;4.61;100.00;97445.97;5073086;28;20284;-88
2021/04/16 05:29:41;;;;;;;81.77;47.03;;;;;;;4.75;100.00;97440.75;5073029;28;20284;-87
2021/04/16 05:32:10;;;;;;;85.27;49.90;;;;;;;4.78;100.00;97435.38;5072951;28;20260;-88
2021/04/16 05:34:37;;;;;;;77.07;50.27;;;;;;;4.90;100.00;97413.75;5073225;28;20197;-88
2021/04/16 05:37:05;;;;;;;32.67;26.90;;;;;;;5.03;100.00;97397.38;5073098;28;20665;-88
2021/04/16 05:39:32;;;;;;;31.60;25.07;;;;;;;5.16;100.00;97391.28;5073169;28;20225;-88
2021/04/16 05:41:59;;;;;;;11.50;10.30;;;;;;;5.13;100.00;97365.41;5073142;28;20284;-89
2021/04/16 05:44:26;;;;;;;9.43;8.47;;;;;;;5.29;100.00;97348.78;5072984;28;20203;-88
2021/04/16 05:46:53;;;;;;;9.77;8.57;;;;;;;5.33;100.00;97345.88;5072943;28;20343;-89
2021/04/16 05:49:21;;;;;;;10.93;8.03;;;;;;;5.42;100.00;97320.97;5072885;28;20204;-89
2021/04/16 05:51:48;;;;;;;10.30;6.00;;;;;;;5.54;100.00;97299.28;5073080;28;20225;-88
2021/04/16 05:54:14;;;;;;;15.90;11.67;;;;;;;5.61;100.00;97269.28;5072865;28;20207;-88
2021/04/16 05:56:42;;;;;;;8.93;7.17;;;;;;;5.69;100.00;97240.06;5072742;28;20204;-89
2021/04/16 05:59:09;;;;;;;23.97;14.20;;;;;;;5.92;100.00;97225.44;5072869;28;20200;-88
2021/04/16 06:01:36;;;;;;;10.27;7.60;;;;;;;6.11;100.00;97184.09;5072721;28;20193;-89
2021/04/16 06:04:03;;;;;;;31.10;20.77;;;;;;;6.19;100.00;97171.34;5072789;28;20246;-88
2021/04/16 06:06:30;;;;;;;5.37;4.87;;;;;;;5.94;100.00;97119.22;5073030;28;20200;-88
2021/04/16 06:09:00;;;;;;;6.47;5.73;;;;;;;5.91;100.00;97114.19;5072997;28;20299;-88
2021/04/16 06:11:28;;;;;;;4.80;4.30;;;;;;;6.03;100.00;97084.66;5072826;28;20282;-90
2021/04/16 06:13:56;;;;;;;4.10;3.80;;;;;;;6.08;100.00;97053.81;5073144;28;20193;-89
2021/04/16 06:16:23;;;;;;;3.80;3.50;;;;;;;6.19;100.00;97042.59;5072858;28;20235;-89
2021/04/16 06:18:51;;;;;;;4.00;3.70;;;;;;;6.30;100.00;97010.47;5072392;28;20280;-88
2021/04/16 06:21:17;;;;;;;5.90;4.40;;;;;;;6.45;100.00;96998.09;5071916;28;20189;-89
2021/04/16 06:23:44;;;;;;;5.77;4.87;;;;;;;6.49;100.00;97049.13;5071935;28;20284;-89
2021/04/16 06:26:11;;;;;;;10.73;8.53;;;;;;;6.81;100.00;97065.81;5070970;28;20288;-88
2021/04/16 06:28:38;;;;;;;6.57;5.60;;;;;;;6.83;100.00;97048.25;5071796;28;20646;-89
2021/04/16 06:31:06;;;;;;;16.33;10.13;;;;;;;6.87;100.00;97026.16;5071949;28;20201;-89
2021/04/16 06:33:35;;;;;;;14.23;9.50;;;;;;;7.24;100.00;97012.88;5072083;28;20283;-89
2021/04/16 06:36:04;;;;;;;3.83;3.50;;;;;;;7.30;100.00;96995.88;5071969;28;20207;-90
2021/04/16 06:38:33;;;;;;;3.30;3.00;;;;;;;7.19;100.00;96951.44;5071707;28;20292;-89
2021/04/16 06:41:02;;;;;;;3.93;2.77;;;;;;;7.42;100.00;96885.06;5071826;28;20245;-89
2021/04/16 06:43:36;;;;;;;3.53;3.27;;;;;;;7.54;100.00;96883.25;5071791;28;20197;-90
2021/04/16 06:46:03;;;;;;;3.00;2.70;;;;;;;7.64;100.00;96844.91;5071680;28;20185;-90
2021/04/16 06:48:31;;;;;;;4.33;3.40;;;;;;;8.02;100.00;96828.63;5071835;28;20274;-89
2021/04/16 06:51:00;;;;;;;3.03;2.47;;;;;;;7.87;100.00;96767.13;5071642;28;20224;-89
2021/04/16 06:53:47;;;;;;;3.43;2.50;;;;;;;8.10;100.00;96781.72;5071668;28;20252;-90
2021/04/16 06:56:18;;;;;;;3.40;2.73;;;;;;;8.28;100.00;96729.56;5071506;28;20661;-89
2021/04/16 06:58:52;;;;;;;3.93;2.93;;;;;;;8.48;100.00;96706.03;5071560;28;20280;-90
2021/04/16 07:01:26;;;;;;;3.13;2.83;;;;;;;8.49;100.00;96671.88;5071207;28;20276;-90
2021/04/16 07:04:09;;;;;;;3.90;2.60;;;;;;;8.67;100.00;96679.88;5071741;28;20182;-90
2021/04/16 07:06:36;;;;;;;3.87;2.80;;;;;;;8.63;100.00;96633.97;5071682;28;20221;-90
2021/04/16 07:09:09;;;;;;;3.23;2.93;;;;;;;8.84;100.00;96620.72;5071325;28;20193;-91
2021/04/16 07:11:40;;;;;;;2.83;2.63;;;;;;;9.52;100.00;96536.59;5071131;28;20209;-88
2021/04/16 07:14:12;;;;;;;3.17;2.97;;;;;;;9.61;100.00;96588.22;5071219;28;20177;-89
2021/04/16 07:16:39;;;;;;;4.77;3.13;;;;;;;9.34;100.00;96557.53;5071566;28;20620;-90
2021/04/16 07:19:14;;;;;;;5.23;4.73;;;;;;;9.61;100.00;96548.84;5038923;28;927756;-90
2021/04/16 07:21:41;;;;;;;5.73;3.70;;;;;;;9.31;100.00;96468.63;5076261;28;20185;-90
2021/04/16 07:24:09;;;;;;;3.60;3.30;;;;;;;9.90;100.00;96422.66;5076227;28;20197;-90
2021/04/16 07:26:43;;;;;;;2.90;2.70;;;;;;;10.43;100.00;96239.69;5075873;28;20201;-89
2021/04/16 07:29:18;;;;;;;4.47;3.17;;;;;;;10.00;100.00;96112.75;5076237;28;20181;-90
2021/04/16 07:31:49;;;;;;;2.90;2.70;;;;;;;9.96;100.00;95980.16;5075948;28;20242;-90
2021/04/16 07:34:34;;;;;;;6.20;2.77;;;;;;;9.81;100.00;95987.03;5076082;28;20276;-87
2021/04/16 07:37:13;;;;;;;3.67;3.00;;;;;;;9.93;100.00;95967.38;5076103;28;20188;-88
2021/04/16 07:39:46;;;;;;;4.07;3.40;;;;;;;10.51;100.00;95905.19;5076755;28;20242;-87
2021/04/16 07:42:21;;;;;;;5.40;5.00;;;;;;;10.45;100.00;95835.72;5075725;28;20657;-87
2021/04/16 07:45:01;;;;;;;2.70;2.50;;;;;;;11.31;100.00;95734.09;5075580;28;20184;-87
2021/04/16 07:47:30;;;;;;;6.80;5.07;;;;;;;11.40;100.00;95522.53;5075643;28;20276;-87
2021/04/16 07:49:59;;;;;;;4.43;3.03;;;;;;;11.59;100.00;95550.13;5075387;28;20666;-86
2021/04/16 07:52:31;;;;;;;4.07;3.73;;;;;;;12.05;100.00;95315.50;5075512;28;20601;-88
2021/04/16 07:55:23;;;;;;;8.13;6.07;;;;;;;12.36;100.00;95291.38;5075433;28;20702;-87
2021/04/16 07:58:19;;;;;;;5.30;4.20;;;;;;;12.04;100.00;95267.28;5075948;28;20185;-87
2021/04/16 08:00:48;;;;;;;4.17;3.77;;;;;;;12.42;100.00;95222.13;5075620;28;20581;-87
2021/04/16 08:03:18;;;;;;;3.83;2.77;;;;;;;11.53;100.00;95269.25;5075343;28;20193;-87
2021/04/16 08:05:49;;;;;;;5.40;3.33;;;;;;;12.33;100.00;95203.03;5075654;28;20290;-88
2021/04/16 08:08:27;;;;;;;4.10;3.67;;;;;;;11.77;100.00;95191.72;5075562;28;20185;-87
2021/04/16 08:11:09;;;;;;;3.40;3.10;;;;;;;10.74;100.00;95208.78;5075231;28;20265;-87
2021/04/16 08:13:38;;;;;;;4.50;3.30;;;;;;;10.98;100.00;95213.72;5075021;28;20189;-87
2021/04/16 08:16:14;;;;;;;3.53;3.20;;;;;;;11.35;100.00;95278.41;5075252;28;20232;-87
2021/04/16 08:18:42;;;;;;;7.10;6.20;;;;;;;10.95;100.00;95227.22;5074747;28;20214;-85
2021/04/16 08:21:16;;;;;;;5.90;4.67;;;;;;;11.56;100.00;95248.63;5074753;28;20235;-86
2021/04/16 08:23:51;;;;;;;5.97;4.00;;;;;;;12.15;100.00;95273.84;5074963;28;20189;-87
2021/04/16 08:26:20;;;;;;;4.10;3.20;;;;;;;13.15;100.00;95300.69;5075032;28;20674;-87
2021/04/16 08:28:52;;;;;;;4.67;3.13;;;;;;;13.70;100.00;95376.22;5074735;28;20195;-87
2021/04/16 08:31:26;;;;;;;3.60;2.90;;;;;;;14.05;100.00;95547.81;5074843;28;20669;-86
2021/04/16 08:34:00;;;;;;;8.03;3.40;;;;;;;14.25;100.00;95801.63;5074624;28;20188;-86
2021/04/16 08:36:32;;;;;;;6.90;3.80;;;;;;;13.21;100.00;96079.16;5074330;28;20275;-86
2021/04/16 08:39:02;;;;;;;4.47;3.73;;;;;;;13.69;100.00;96115.84;5074656;28;20606;-87
2021/04/16 08:41:32;;;;;;;3.60;3.30;;;;;;;12.47;100.00;96073.66;5074555;28;20204;-87
2021/04/16 08:44:01;;;;;;;5.17;3.47;;;;;;;12.32;100.00;96149.19;5074705;28;20197;-86
2021/04/16 08:46:34;;;;;;;3.00;2.63;;;;;;;12.05;100.00;96172.38;5074436;28;20227;-86
2021/04/16 08:49:08;;;;;;;3.43;3.13;;;;;;;12.73;100.00;96191.16;5074542;28;20223;-86
2021/04/16 08:51:39;;;;;;;3.27;2.97;;;;;;;11.63;100.00;96244.47;5074196;28;20259;-86
2021/04/16 08:54:16;;;;;;;4.43;3.33;;;;;;;12.57;100.00;96189.41;5074121;28;20187;-86
2021/04/16 08:56:53;;;;;;;5.07;4.67;;;;;;;12.78;100.00;96252.94;5073969;28;20277;-86
2021/04/16 08:59:22;;;;;;;3.63;3.33;;;;;;;13.42;100.00;96228.97;5074031;28;20190;-86
2021/04/16 09:01:56;;;;;;;5.93;3.70;;;;;;;13.92;100.00;96423.06;5073788;28;20286;-86
2021/04/16 09:04:38;;;;;;;4.67;3.67;;;;;;;14.14;100.00;96378.31;5073908;28;20672;-86
2021/04/16 09:07:06;;;;;;;5.73;3.90;;;;;;;12.74;100.00;96422.22;5074337;28;20181;-86
2021/04/16 09:09:43;;;;;;;5.97;2.93;;;;;;;13.31;100.00;96453.75;5073807;28;20692;-87
2021/04/16 09:12:11;;;;;;;4.83;3.20;;;;;;;14.37;100.00;96458.41;5073767;28;20259;-86
2021/04/16 09:15:01;;;;;;;5.73;3.87;;;;;;;14.93;100.00;96501.28;5073956;28;20254;-87
2021/04/16 09:18:01;;;;;;;5.33;3.63;;;;;;;14.24;100.00;96471.41;5058775;28;20193;-87
2021/04/16 09:20:49;;;;;;;5.43;4.07;;;;;;;13.77;100.00;96504.06;5073549;28;20225;-87
2021/04/16 09:23:40;;;;;;;4.77;3.60;;;;;;;13.99;100.00;96491.88;5073497;28;20223;-87
2021/04/16 09:26:08;;;;;;;27.50;19.13;;;;;;;14.19;100.00;96479.03;5073509;28;20283;-87
2021/04/16 09:28:51;;;;;;;10.70;9.20;;;;;;;14.97;100.00;96454.94;5073680;28;20690;-87
2021/04/16 09:31:50;;;;;;;5.87;4.03;;;;;;;14.80;100.00;96524.88;5073535;28;20660;-87
2021/04/16 09:34:20;;;;;;;13.67;8.30;;;;;;;14.73;100.00;96522.13;5073851;28;20203;-87
2021/04/16 09:36:49;;;;;;;32.93;22.53;;;;;;;14.54;100.00;96511.22;5073412;28;20199;-88
2021/04/16 09:39:33;;;;;;;10.03;5.67;;;;;;;14.61;100.00;96543.88;5073768;28;20229;-87
2021/04/16 09:42:00;;;;;;;6.17;4.70;;;;;;;14.49;100.00;96556.69;5073397;28;20264;-88
2021/04/16 09:44:45;;;;;;;3.93;3.33;;;;;;;14.31;100.00;96553.50;5073592;28;20666;-88
2021/04/16 09:47:13;;;;;;;6.27;5.63;;;;;;;15.39;100.00;96548.00;5073602;28;20709;-87
2021/04/16 09:49:56;;;;;;;3.20;2.90;;;;;;;16.04;100.00;96531.34;5073002;28;20334;-87
2021/04/16 09:52:51;;;;;;;3.67;3.13;;;;;;;16.07;100.00;96564.59;5073477;28;20587;-89
2021/04/16 09:56:09;;;;;;;8.43;6.07;;;;;;;16.48;100.00;96554.25;5044088;28;20229;-88
2021/04/16 09:59:10;;;;;;;8.70;5.60;;;;;;;16.03;100.00;96550.91;4992101;28;20310;-88
2021/04/16 10:02:22;;;;;;;5.60;3.27;;;;;;;16.15;100.00;96556.56;5073128;28;20221;-88
2021/04/16 10:04:57;;;;;;;3.87;3.50;;;;;;;16.51;100.00;96566.31;5073293;28;20190;-88
2021/04/16 10:07:33;;;;;;;3.03;2.73;;;;;;;15.19;100.00;96576.81;5073213;28;20195;-87
2021/04/16 10:10:08;;;;;;;3.87;2.80;;;;;;;14.27;100.00;96592.69;5073052;28;20212;-89
2021/04/16 10:12:36;;;;;;;4.33;3.93;;;;;;;13.66;100.00;96565.19;5073028;28;20299;-88
2021/04/16 10:15:17;;;;;;;3.70;3.50;;;;;;;14.23;100.00;96575.50;5073229;28;20196;-88
2021/04/16 10:18:05;;;;;;;3.90;3.60;;;;;;;13.95;100.00;96583.06;5073061;28;20188;-87
2021/04/16 10:20:38;;;;;;;5.97;3.97;;;;;;;13.92;100.00;96572.84;5072665;28;20239;-87
2021/04/16 10:23:19;;;;;;;5.23;3.77;;;;;;;14.55;100.00;96560.44;5073018;28;20262;-89
2021/04/16 12:38:55;;;;;;;3.70;3.40;;;;;;;14.06;100.00;96508.69;5074336;28;20696;-87
2021/04/16 12:41:25;;;;;;;4.93;3.73;;;;;;;13.61;100.00;96504.94;5074210;28;20274;-86
2021/04/16 12:43:54;;;;;;;4.50;4.10;;;;;;;13.37;100.00;96505.88;5074580;28;20292;-88
2021/04/16 12:46:23;;;;;;;6.83;3.73;;;;;;;13.41;100.00;96501.91;5074137;28;20283;-88
2021/04/16 12:48:50;;;;;;;6.53;3.87;;;;;;;13.11;100.00;96508.72;5074309;28;20317;-88
2021/04/16 12:51:18;;;;;;;11.87;9.37;;;;;;;13.34;100.00;96498.31;5073910;28;20203;-88
2021/04/16 12:53:44;;;;;;;7.87;6.73;;;;;;;13.71;100.00;96504.75;5073912;28;20217;-88
2021/04/16 12:56:16;;;;;;;5.90;4.63;;;;;;;13.40;100.00;96504.69;5074073;28;20632;-88
2021/04/16 12:58:45;;;;;;;4.30;3.97;;;;;;;13.74;100.00;96501.75;5074020;28;20272;-88
2021/04/16 13:01:29;;;;;;;3.63;3.23;;;;;;;13.80;100.00;96495.78;5073960;28;20693;-89
2021/04/16 13:03:56;;;;;;;4.50;3.67;;;;;;;13.67;100.00;96506.91;5074204;28;20264;-88
2021/04/16 13:06:26;;;;;;;4.43;4.03;;;;;;;13.58;100.00;96494.75;5073640;28;20693;-86
2021/04/16 13:08:54;;;;;;;4.30;3.90;;;;;;;13.55;100.00;96501.19;5073656;28;20226;-86
2021/04/16 13:11:22;;;;;;;6.07;3.40;;;;;;;13.38;100.00;96489.03;5073761;28;20193;-86
2021/04/16 13:13:48;;;;;;;3.47;3.10;;;;;;;12.81;100.00;96503.16;5073822;28;20193;-87
2021/04/16 13:16:16;;;;;;;3.40;3.10;;;;;;;12.52;100.00;96508.94;5073836;28;20798;-87
2021/04/16 13:18:47;;;;;;;4.07;3.00;;;;;;;12.72;100.00;96503.34;5072504;28;20252;-88
2021/04/16 13:21:18;;;;;;;7.23;3.57;;;;;;;13.23;100.00;96491.53;5073457;28;20649;-88
2021/04/16 13:23:45;;;;;;;6.00;4.27;;;;;;;13.21;100.00;96493.53;5073684;28;20185;-89
2021/04/16 13:26:12;;;;;;;18.40;10.30;;;;;;;13.18;100.00;96487.75;5073238;28;20342;-88
2021/04/16 13:28:39;;;;;;;138.57;64.90;;;;;;;13.51;100.00;96484.06;5073908;28;20196;-88
2021/04/16 13:31:23;;;;;;;17.20;10.50;;;;;;;13.63;100.00;96492.41;5074385;28;20574;-89
2021/04/16 13:33:56;;;;;;;16.23;9.60;;;;;;;13.35;100.00;96489.38;5075101;28;20223;-87
2021/04/16 13:36:36;;;;;;;10.80;8.20;;;;;;;13.48;100.00;96491.50;5074794;28;20200;-87
2021/04/16 13:39:06;;;;;;;9.47;5.90;;;;;;;13.17;100.00;96488.75;5073520;28;20673;-88
2021/04/16 13:41:33;;;;;;;5.27;3.83;;;;;;;13.20;100.00;96491.88;5073963;28;20236;-88
2021/04/16 13:44:00;;;;;;;3.57;3.27;;;;;;;13.21;100.00;96482.97;5074345;28;20282;-88
2021/04/16 13:46:30;;;;;;;4.33;3.20;;;;;;;13.56;100.00;96483.53;5073381;28;20575;-89
2021/04/16 13:48:57;;;;;;;4.63;3.30;;;;;;;13.24;100.00;96489.75;5073735;28;20208;-89
2021/04/16 13:51:26;;;;;;;5.50;2.97;;;;;;;13.41;100.00;96487.88;5072863;28;20680;-88
2021/04/16 13:53:54;;;;;;;3.67;2.80;;;;;;;13.46;100.00;96482.91;5072633;28;20204;-88
2021/04/16 13:56:21;;;;;;;12.07;9.73;;;;;;;13.12;100.00;96488.41;5072670;28;20235;-88
2021/04/16 13:58:48;;;;;;;6.23;3.80;;;;;;;12.56;100.00;96491.78;5073138;28;20207;-88